createdAt,value
2019-02-14T00:02:58.194Z,-2.50
2019-02-14T00:07:49.608Z,-2.50
2019-02-14T00:12:41.009Z,-2.50
2019-02-14T00:17:32.380Z,-2.50
2019-02-14T00:22:23.801Z,-2.50
2019-02-14T00:27:15.153Z,-2.60
2019-02-14T00:32:06.642Z,-2.60
2019-02-14T00:36:57.945Z,-2.60
2019-02-14T00:41:49.306Z,-2.60
2019-02-14T00:46:50.692Z,-2.70
2019-02-14T00:51:32.087Z,-2.70
2019-02-14T00:56:23.500Z,-2.80
2019-02-14T01:01:14.875Z,-2.80
2019-02-14T01:06:06.209Z,-2.80
2019-02-14T01:10:59.793Z,-2.90
2019-02-14T01:15:51.274Z,-2.90
2019-02-14T01:20:42.634Z,-2.90
2019-02-14T01:25:36.284Z,-2.90
2019-02-14T01:30:27.768Z,-2.80
2019-02-14T01:35:23.647Z,-2.80
2019-02-14T01:40:15.101Z,-2.90
2019-02-14T01:45:06.483Z,-2.90
2019-02-14T01:49:57.848Z,-2.90
2019-02-14T01:54:49.252Z,-3.00
2019-02-14T01:59:40.656Z,-2.90
2019-02-14T02:04:32.050Z,-2.90
2019-02-14T02:09:23.377Z,-3.00
2019-02-14T02:14:14.810Z,-3.00
2019-02-14T02:19:08.397Z,-3.00
2019-02-14T02:24:02.097Z,-3.00
2019-02-14T02:28:53.521Z,-3.00
2019-02-14T02:33:44.926Z,-3.00
2019-02-14T02:38:36.304Z,-2.90
2019-02-14T02:43:35.523Z,-3.00
2019-02-14T02:48:26.945Z,-3.00
2019-02-14T02:53:18.334Z,-3.00
2019-02-14T02:58:09.766Z,-3.00
2019-02-14T03:03:01.209Z,-3.00
2019-02-14T03:07:52.565Z,-3.00
2019-02-14T03:12:44.030Z,-2.90
2019-02-14T03:17:35.404Z,-2.90
2019-02-14T03:22:26.817Z,-3.00
2019-02-14T03:27:20.383Z,-3.00
2019-02-14T03:32:11.885Z,-3.00
2019-02-14T03:37:03.212Z,-2.90
2019-02-14T03:41:54.731Z,-3.00
2019-02-14T03:46:46.057Z,-3.10
2019-02-14T03:51:37.492Z,-3.00
2019-02-14T03:56:28.895Z,-3.00
2019-02-14T04:01:20.353Z,-3.00
2019-02-14T04:06:11.708Z,-3.00
2019-02-14T04:11:03.153Z,-3.20
2019-02-14T04:15:54.616Z,-3.20
2019-02-14T04:20:45.980Z,-3.10
2019-02-14T04:25:37.438Z,-3.10
2019-02-14T04:30:28.856Z,-3.20
2019-02-14T04:35:20.268Z,-3.30
2019-02-14T04:40:11.642Z,-3.40
2019-02-14T04:45:03.076Z,-3.40
2019-02-14T04:49:54.468Z,-3.40
2019-02-14T04:54:45.865Z,-3.40
2019-02-14T04:59:37.221Z,-3.40
2019-02-14T05:04:28.775Z,-3.40
2019-02-14T05:09:20.218Z,-3.40
2019-02-14T05:14:11.539Z,-3.50
2019-02-14T05:19:03.054Z,-3.50
2019-02-14T05:28:45.870Z,-3.60
2019-02-14T05:33:37.230Z,-3.60
2019-02-14T05:38:28.689Z,-3.60
2019-02-14T05:43:20.046Z,-3.60
2019-02-14T05:48:11.533Z,-3.70
2019-02-14T05:53:03.043Z,-3.70
2019-02-14T05:57:54.443Z,-3.70
2019-02-14T06:02:45.819Z,-3.60
2019-02-14T06:07:37.262Z,-3.60
2019-02-14T06:12:28.633Z,-3.70
2019-02-14T06:17:20.100Z,-3.60
2019-02-14T06:22:11.417Z,-3.60
2019-02-14T06:27:05.092Z,-3.60
2019-02-14T06:31:58.778Z,-3.60
2019-02-14T06:36:52.512Z,-3.60
2019-02-14T06:41:43.940Z,-3.60
2019-02-14T06:46:35.337Z,-3.60
2019-02-14T06:51:26.706Z,-3.50
2019-02-14T06:56:18.111Z,-3.40
2019-02-14T07:01:11.836Z,-3.40
2019-02-14T07:06:03.437Z,-3.40
2019-02-14T07:10:54.778Z,-4.60
2019-02-14T07:15:46.171Z,-3.20
2019-02-14T07:20:37.589Z,-3.10
2019-02-14T07:25:28.977Z,-3.00
2019-02-14T07:30:20.476Z,-3.00
2019-02-14T07:35:11.837Z,-2.90
2019-02-14T07:40:03.275Z,-2.70
2019-02-14T07:44:54.700Z,-2.50
2019-02-14T07:49:48.357Z,-2.10
2019-02-14T07:54:39.759Z,-2.10
2019-02-14T07:59:31.211Z,-1.80
2019-02-14T08:04:22.698Z,-1.40
2019-02-14T08:09:14.118Z,-1.10
2019-02-14T08:14:05.491Z,-0.90
2019-02-14T08:18:56.890Z,-0.50
2019-02-14T08:23:48.366Z,-0.10
2019-02-14T08:28:39.744Z,0.30
2019-02-14T08:33:31.229Z,0.60
2019-02-14T08:38:22.540Z,1.00
2019-02-14T08:43:13.989Z,1.50
2019-02-14T08:48:07.751Z,2.50
2019-02-14T08:52:59.214Z,2.90
2019-02-14T08:57:50.643Z,2.90
2019-02-14T09:02:41.927Z,3.20
2019-02-14T09:07:33.383Z,3.70
2019-02-14T09:12:24.771Z,4.00
2019-02-14T09:17:16.142Z,4.10
2019-02-14T09:22:07.507Z,4.80
2019-02-14T09:27:03.911Z,4.90
2019-02-14T09:31:50.334Z,5.50
2019-02-14T09:36:41.747Z,5.70
2019-02-14T09:41:33.089Z,6.00
2019-02-14T09:46:24.552Z,6.00
2019-02-14T09:51:15.926Z,6.00
2019-02-14T09:56:09.467Z,6.40
2019-02-14T10:01:00.965Z,6.40
2019-02-14T10:05:52.262Z,6.70
2019-02-14T10:10:43.737Z,6.90
2019-02-14T10:15:35.115Z,7.10
2019-02-14T10:20:26.513Z,7.30
2019-02-14T10:25:17.840Z,7.30
2019-02-14T10:30:09.334Z,7.70
2019-02-14T10:35:00.877Z,7.70
2019-02-14T10:39:51.958Z,8.30
2019-02-14T10:44:43.392Z,8.30
2019-02-14T10:49:34.870Z,8.60
2019-02-14T10:54:26.182Z,8.60
2019-02-14T10:59:17.560Z,8.90
2019-02-14T11:04:08.923Z,8.90
2019-02-14T11:09:02.629Z,9.50
2019-02-14T11:13:54.075Z,9.60
2019-02-14T11:18:45.473Z,9.60
2019-02-14T11:23:36.859Z,9.80
2019-02-14T11:28:28.296Z,10.10
2019-02-14T11:33:19.618Z,10.60
2019-02-14T11:38:11.071Z,11.00
2019-02-14T11:43:02.386Z,11.00
2019-02-14T11:47:56.026Z,11.60
2019-02-14T11:52:49.691Z,11.60
2019-02-14T11:57:43.369Z,11.80
2019-02-14T12:02:34.799Z,11.80
2019-02-14T12:07:26.201Z,11.90
2019-02-14T12:12:22.947Z,11.70
2019-02-14T12:17:11.257Z,11.70
2019-02-14T12:22:02.660Z,11.70
2019-02-14T12:26:56.262Z,11.50
2019-02-14T12:31:47.746Z,11.50
2019-02-14T12:36:39.228Z,11.50
2019-02-14T12:41:30.489Z,11.60
2019-02-14T12:46:21.844Z,11.50
2019-02-14T12:51:15.512Z,11.40
2019-02-14T12:56:06.939Z,11.50
2019-02-14T13:00:58.379Z,11.60
2019-02-14T13:05:49.733Z,11.90
2019-02-14T13:10:41.136Z,12.00
2019-02-14T13:15:32.517Z,12.40
2019-02-14T13:20:23.878Z,12.50
2019-02-14T13:25:15.342Z,12.40
2019-02-14T13:30:06.625Z,12.70
2019-02-14T13:35:03.103Z,12.80
2019-02-14T13:39:49.515Z,12.60
2019-02-14T13:44:43.291Z,12.40
2019-02-14T13:49:33.511Z,12.40
2019-02-14T13:54:23.644Z,12.80
2019-02-14T13:59:15.013Z,13.10
2019-02-14T14:04:06.446Z,13.00
2019-02-14T14:08:57.786Z,12.90
2019-02-14T14:13:49.152Z,12.90
2019-02-14T14:18:40.553Z,12.60
2019-02-14T14:23:31.959Z,12.50
2019-02-14T14:28:23.394Z,12.50
2019-02-14T14:33:14.749Z,12.50
2019-02-14T14:38:06.202Z,12.40
2019-02-14T14:42:57.553Z,12.20
2019-02-14T14:47:48.958Z,12.00
2019-02-14T14:52:42.546Z,12.10
2019-02-14T14:57:34.044Z,12.10
2019-02-14T15:02:25.426Z,12.10
2019-02-14T15:12:10.481Z,11.80
2019-02-14T15:17:01.854Z,11.80
2019-02-14T15:21:53.229Z,11.80
2019-02-14T15:26:44.592Z,11.70
2019-02-14T15:31:36.009Z,11.20
2019-02-14T15:36:28.932Z,11.10
2019-02-14T15:41:18.883Z,10.80
2019-02-14T15:46:10.334Z,10.70
2019-02-14T15:51:01.708Z,10.60
2019-02-14T15:55:53.430Z,10.40
2019-02-14T16:00:44.609Z,10.40
2019-02-14T16:05:35.919Z,10.00
2019-02-14T16:10:30.208Z,9.80
2019-02-14T16:15:18.704Z,9.40
2019-02-14T16:20:10.272Z,9.40
2019-02-14T16:25:07.214Z,9.00
2019-02-14T16:29:52.924Z,7.80
2019-02-14T16:34:44.339Z,7.40
2019-02-14T16:39:35.657Z,7.10
2019-02-14T16:44:27.076Z,6.90
2019-02-14T16:49:18.477Z,6.80
2019-02-14T16:54:09.886Z,6.10
2019-02-14T16:59:01.320Z,6.10
2019-02-14T17:03:52.759Z,5.40
2019-02-14T17:08:44.088Z,5.40
2019-02-14T17:13:35.491Z,5.10
2019-02-14T17:18:26.949Z,4.50
2019-02-14T17:23:18.252Z,4.40
2019-02-14T17:28:09.707Z,3.90
2019-02-14T17:33:01.045Z,3.80
2019-02-14T17:37:52.433Z,3.60
2019-02-14T17:42:43.919Z,3.40
2019-02-14T17:47:37.513Z,3.30
2019-02-14T17:52:28.905Z,3.10
2019-02-14T17:57:20.291Z,2.90
2019-02-14T18:02:11.707Z,2.60
2019-02-14T18:07:03.105Z,2.60
2019-02-14T18:11:54.578Z,2.30
2019-02-14T18:16:45.976Z,2.20
2019-02-14T18:21:37.364Z,1.90
2019-02-14T18:26:30.927Z,1.60
2019-02-14T18:31:22.411Z,1.50
2019-02-14T18:36:13.811Z,1.50
2019-02-14T18:41:07.434Z,1.40
2019-02-14T18:45:58.941Z,1.30
2019-02-14T18:50:50.377Z,1.10
2019-02-14T18:55:41.725Z,1.10
2019-02-14T19:00:33.209Z,0.80
2019-02-14T19:05:24.622Z,0.80
2019-02-14T19:10:16.005Z,0.50
2019-02-14T19:15:07.341Z,0.40
2019-02-14T19:19:58.891Z,0.30
2019-02-14T19:24:50.119Z,0.20
2019-02-14T19:29:41.588Z,-0.10
2019-02-14T19:34:33.033Z,-0.30
2019-02-14T19:39:24.439Z,-0.40
2019-02-14T19:44:15.771Z,-0.30
2019-02-14T19:49:07.145Z,-0.20
2019-02-14T19:53:58.552Z,-0.20
2019-02-14T19:58:59.976Z,-0.30
2019-02-14T20:03:41.315Z,-0.20
2019-02-14T20:08:32.756Z,-0.30
2019-02-14T20:13:24.193Z,-0.30
2019-02-14T20:18:15.560Z,-0.40
2019-02-14T20:23:06.922Z,-0.50
2019-02-14T20:27:58.314Z,-0.50
2019-02-14T20:32:49.839Z,-0.50
2019-02-14T20:37:41.270Z,-0.60
2019-02-14T20:42:32.647Z,-0.60
2019-02-14T20:47:23.964Z,-0.70
2019-02-14T20:52:15.412Z,-0.70
2019-02-14T20:57:09.055Z,-0.80
2019-02-14T21:02:00.536Z,-0.80
2019-02-14T21:06:51.927Z,-0.90
2019-02-14T21:11:43.407Z,-0.90
2019-02-14T21:16:34.840Z,-1.00
2019-02-14T21:21:26.232Z,-1.00
2019-02-14T21:26:17.675Z,-1.20
2019-02-14T21:31:11.360Z,-1.20
2019-02-14T21:36:02.914Z,-1.20
2019-02-14T21:40:56.378Z,-1.30
2019-02-14T21:45:47.928Z,-1.30
2019-02-14T21:50:39.339Z,-1.40
2019-02-14T21:55:30.691Z,-1.50
2019-02-14T22:00:22.062Z,-1.60
2019-02-14T22:05:15.632Z,-1.60
2019-02-14T22:10:07.181Z,-1.70
2019-02-14T22:14:58.417Z,-1.70
2019-02-14T22:19:49.903Z,-1.70
2019-02-14T22:24:41.295Z,-1.70
2019-02-14T22:29:32.705Z,-1.60
2019-02-14T22:34:24.077Z,-1.70
2019-02-14T22:39:15.454Z,-1.60
2019-02-14T22:44:06.845Z,-1.70
2019-02-14T22:49:00.513Z,-1.70
2019-02-14T22:53:54.167Z,-1.90
2019-02-14T22:58:45.663Z,-1.90
2019-02-14T23:03:39.225Z,-1.90
2019-02-14T23:08:30.653Z,-2.00
2019-02-14T23:13:21.996Z,-2.10
2019-02-14T23:18:13.433Z,-2.10
2019-02-14T23:23:04.854Z,-2.10
2019-02-14T23:27:56.256Z,-2.10
2019-02-14T23:32:49.923Z,-2.10
2019-02-14T23:37:43.608Z,-2.10
2019-02-14T23:42:35.035Z,-2.10
2019-02-14T23:47:26.405Z,-2.20
2019-02-14T23:57:09.142Z,-2.20
